sensor_id;sensor_type;location;lat;lon;timestamp;P1;durP1;ratioP1;P2;durP2;ratioP2
28343;SDS011;15597;50.914;6.638;2023-03-04T00:00:27;50.30;;;18.27;;
28343;SDS011;15597;50.914;6.638;2023-03-04T00:02:52;66.15;;;22.65;;
28343;SDS011;15597;50.914;6.638;2023-03-04T00:05:18;65.15;;;21.15;;
28343;SDS011;15597;50.914;6.638;2023-03-04T00:07:45;61.95;;;21.70;;
28343;SDS011;15597;50.914;6.638;2023-03-04T00:10:10;60.75;;;20.83;;
28343;SDS011;15597;50.914;6.638;2023-03-04T00:12:36;60.25;;;20.77;;
28343;SDS011;15597;50.914;6.638;2023-03-04T00:15:02;48.47;;;17.65;;
28343;SDS011;15597;50.914;6.638;2023-03-04T00:17:28;51.90;;;18.42;;
28343;SDS011;15597;50.914;6.638;2023-03-04T00:19:56;58.67;;;18.88;;
28343;SDS011;15597;50.914;6.638;2023-03-04T00:22:23;50.70;;;18.70;;
28343;SDS011;15597;50.914;6.638;2023-03-04T00:24:49;54.97;;;18.38;;
28343;SDS011;15597;50.914;6.638;2023-03-04T00:27:15;55.70;;;18.88;;
28343;SDS011;15597;50.914;6.638;2023-03-04T00:29:40;49.90;;;18.10;;
28343;SDS011;15597;50.914;6.638;2023-03-04T00:32:06;53.17;;;18.83;;
28343;SDS011;15597;50.914;6.638;2023-03-04T00:34:32;53.55;;;18.30;;
28343;SDS011;15597;50.914;6.638;2023-03-04T00:36:57;49.50;;;18.58;;
28343;SDS011;15597;50.914;6.638;2023-03-04T00:39:28;47.58;;;17.73;;
28343;SDS011;15597;50.914;6.638;2023-03-04T00:41:54;49.30;;;18.05;;
28343;SDS011;15597;50.914;6.638;2023-03-04T00:44:20;48.42;;;17.65;;
28343;SDS011;15597;50.914;6.638;2023-03-04T00:46:45;50.75;;;18.65;;
28343;SDS011;15597;50.914;6.638;2023-03-04T00:49:12;45.72;;;17.25;;
28343;SDS011;15597;50.914;6.638;2023-03-04T00:51:38;54.28;;;18.23;;
28343;SDS011;15597;50.914;6.638;2023-03-04T00:54:03;49.70;;;16.73;;
28343;SDS011;15597;50.914;6.638;2023-03-04T00:56:29;45.85;;;17.63;;
28343;SDS011;15597;50.914;6.638;2023-03-04T00:58:55;43.17;;;17.40;;
28343;SDS011;15597;50.914;6.638;2023-03-04T01:01:20;45.65;;;16.80;;
28343;SDS011;15597;50.914;6.638;2023-03-04T01:03:46;42.40;;;14.70;;
28343;SDS011;15597;50.914;6.638;2023-03-04T01:06:12;44.20;;;15.45;;
28343;SDS011;15597;50.914;6.638;2023-03-04T01:08:38;42.25;;;15.35;;
28343;SDS011;15597;50.914;6.638;2023-03-04T01:11:04;40.35;;;16.30;;
28343;SDS011;15597;50.914;6.638;2023-03-04T01:13:30;44.80;;;15.52;;
28343;SDS011;15597;50.914;6.638;2023-03-04T01:15:56;40.47;;;16.30;;
28343;SDS011;15597;50.914;6.638;2023-03-04T01:18:22;35.97;;;13.45;;
28343;SDS011;15597;50.914;6.638;2023-03-04T01:20:48;36.55;;;13.40;;
28343;SDS011;15597;50.914;6.638;2023-03-04T01:23:13;26.67;;;10.75;;
28343;SDS011;15597;50.914;6.638;2023-03-04T01:25:40;34.13;;;13.10;;
28343;SDS011;15597;50.914;6.638;2023-03-04T01:28:06;39.22;;;14.48;;
28343;SDS011;15597;50.914;6.638;2023-03-04T01:30:31;38.25;;;13.45;;
28343;SDS011;15597;50.914;6.638;2023-03-04T01:32:57;42.95;;;16.30;;
28343;SDS011;15597;50.914;6.638;2023-03-04T01:35:22;42.65;;;14.98;;
28343;SDS011;15597;50.914;6.638;2023-03-04T01:37:48;42.45;;;14.90;;
28343;SDS011;15597;50.914;6.638;2023-03-04T01:40:14;46.75;;;16.33;;
28343;SDS011;15597;50.914;6.638;2023-03-04T01:42:39;47.80;;;15.25;;
28343;SDS011;15597;50.914;6.638;2023-03-04T01:45:05;40.55;;;15.10;;
28343;SDS011;15597;50.914;6.638;2023-03-04T01:47:32;39.97;;;14.43;;
28343;SDS011;15597;50.914;6.638;2023-03-04T01:50:00;45.78;;;15.85;;
28343;SDS011;15597;50.914;6.638;2023-03-04T01:52:29;42.00;;;15.25;;
28343;SDS011;15597;50.914;6.638;2023-03-04T01:54:54;44.17;;;16.52;;
28343;SDS011;15597;50.914;6.638;2023-03-04T01:57:21;43.97;;;14.68;;
28343;SDS011;15597;50.914;6.638;2023-03-04T02:02:45;43.42;;;15.27;;
28343;SDS011;15597;50.914;6.638;2023-03-04T02:05:11;40.67;;;15.38;;
28343;SDS011;15597;50.914;6.638;2023-03-04T02:07:38;42.90;;;14.77;;
28343;SDS011;15597;50.914;6.638;2023-03-04T02:10:04;39.60;;;14.90;;
28343;SDS011;15597;50.914;6.638;2023-03-04T02:12:30;38.47;;;15.15;;
28343;SDS011;15597;50.914;6.638;2023-03-04T02:14:57;42.10;;;15.98;;
28343;SDS011;15597;50.914;6.638;2023-03-04T02:17:26;41.67;;;15.07;;
28343;SDS011;15597;50.914;6.638;2023-03-04T02:19:58;43.50;;;14.55;;
28343;SDS011;15597;50.914;6.638;2023-03-04T02:22:29;38.42;;;13.38;;
28343;SDS011;15597;50.914;6.638;2023-03-04T02:24:59;37.40;;;12.57;;
28343;SDS011;15597;50.914;6.638;2023-03-04T02:27:31;40.85;;;15.75;;
28343;SDS011;15597;50.914;6.638;2023-03-04T02:29:57;36.35;;;13.18;;
28343;SDS011;15597;50.914;6.638;2023-03-04T02:32:22;41.70;;;15.68;;
28343;SDS011;15597;50.914;6.638;2023-03-04T02:34:48;39.75;;;13.02;;
28343;SDS011;15597;50.914;6.638;2023-03-04T02:37:15;46.83;;;15.75;;
28343;SDS011;15597;50.914;6.638;2023-03-04T02:39:44;39.53;;;14.95;;
28343;SDS011;15597;50.914;6.638;2023-03-04T02:42:11;40.92;;;15.30;;
28343;SDS011;15597;50.914;6.638;2023-03-04T02:44:38;38.78;;;14.30;;
28343;SDS011;15597;50.914;6.638;2023-03-04T02:47:08;32.83;;;12.55;;
28343;SDS011;15597;50.914;6.638;2023-03-04T02:49:36;43.10;;;12.77;;
28343;SDS011;15597;50.914;6.638;2023-03-04T02:52:13;40.35;;;12.88;;
28343;SDS011;15597;50.914;6.638;2023-03-04T02:54:42;40.13;;;13.40;;
28343;SDS011;15597;50.914;6.638;2023-03-04T02:57:10;37.35;;;14.35;;
28343;SDS011;15597;50.914;6.638;2023-03-04T02:59:40;39.17;;;13.93;;
28343;SDS011;15597;50.914;6.638;2023-03-04T03:02:08;41.08;;;14.07;;
28343;SDS011;15597;50.914;6.638;2023-03-04T03:04:36;38.67;;;14.75;;
28343;SDS011;15597;50.914;6.638;2023-03-04T03:07:06;38.92;;;12.20;;
28343;SDS011;15597;50.914;6.638;2023-03-04T03:09:32;40.10;;;13.85;;
28343;SDS011;15597;50.914;6.638;2023-03-04T03:11:58;45.50;;;13.40;;
28343;SDS011;15597;50.914;6.638;2023-03-04T03:14:24;40.08;;;13.27;;
28343;SDS011;15597;50.914;6.638;2023-03-04T03:16:50;47.63;;;15.15;;
28343;SDS011;15597;50.914;6.638;2023-03-04T03:19:16;48.45;;;16.05;;
28343;SDS011;15597;50.914;6.638;2023-03-04T03:21:42;44.03;;;14.73;;
28343;SDS011;15597;50.914;6.638;2023-03-04T03:24:09;44.88;;;14.75;;
28343;SDS011;15597;50.914;6.638;2023-03-04T03:26:34;42.90;;;14.57;;
28343;SDS011;15597;50.914;6.638;2023-03-04T03:29:00;48.72;;;15.45;;
28343;SDS011;15597;50.914;6.638;2023-03-04T03:31:27;47.53;;;15.05;;
28343;SDS011;15597;50.914;6.638;2023-03-04T03:33:52;34.92;;;13.95;;
28343;SDS011;15597;50.914;6.638;2023-03-04T03:36:18;35.80;;;13.00;;
28343;SDS011;15597;50.914;6.638;2023-03-04T03:38:43;45.63;;;13.55;;
28343;SDS011;15597;50.914;6.638;2023-03-04T03:41:09;36.78;;;13.10;;
28343;SDS011;15597;50.914;6.638;2023-03-04T03:43:35;32.33;;;12.25;;
28343;SDS011;15597;50.914;6.638;2023-03-04T03:46:01;38.30;;;14.18;;
28343;SDS011;15597;50.914;6.638;2023-03-04T03:48:26;41.40;;;13.15;;
28343;SDS011;15597;50.914;6.638;2023-03-04T03:50:51;39.08;;;13.18;;
28343;SDS011;15597;50.914;6.638;2023-03-04T03:53:17;37.35;;;14.10;;
28343;SDS011;15597;50.914;6.638;2023-03-04T03:55:42;34.88;;;12.75;;
28343;SDS011;15597;50.914;6.638;2023-03-04T03:58:08;36.85;;;13.38;;
28343;SDS011;15597;50.914;6.638;2023-03-04T04:00:34;35.22;;;13.38;;
28343;SDS011;15597;50.914;6.638;2023-03-04T04:02:59;34.20;;;11.65;;
28343;SDS011;15597;50.914;6.638;2023-03-04T04:05:26;37.97;;;11.85;;
28343;SDS011;15597;50.914;6.638;2023-03-04T04:07:51;38.78;;;14.07;;
28343;SDS011;15597;50.914;6.638;2023-03-04T04:10:17;34.25;;;12.00;;
28343;SDS011;15597;50.914;6.638;2023-03-04T04:12:43;30.67;;;10.57;;
28343;SDS011;15597;50.914;6.638;2023-03-04T04:15:10;35.45;;;11.75;;
28343;SDS011;15597;50.914;6.638;2023-03-04T04:17:37;36.75;;;14.23;;
28343;SDS011;15597;50.914;6.638;2023-03-04T04:20:03;33.05;;;13.05;;
28343;SDS011;15597;50.914;6.638;2023-03-04T04:22:29;27.27;;;9.45;;
28343;SDS011;15597;50.914;6.638;2023-03-04T04:24:55;25.02;;;7.70;;
28343;SDS011;15597;50.914;6.638;2023-03-04T04:27:20;29.02;;;10.15;;
28343;SDS011;15597;50.914;6.638;2023-03-04T04:29:46;22.20;;;6.78;;
28343;SDS011;15597;50.914;6.638;2023-03-04T04:32:13;23.67;;;8.20;;
28343;SDS011;15597;50.914;6.638;2023-03-04T04:34:38;25.65;;;10.15;;
28343;SDS011;15597;50.914;6.638;2023-03-04T04:37:04;19.73;;;7.05;;
28343;SDS011;15597;50.914;6.638;2023-03-04T04:39:30;34.72;;;12.90;;
28343;SDS011;15597;50.914;6.638;2023-03-04T04:41:55;33.63;;;13.15;;
28343;SDS011;15597;50.914;6.638;2023-03-04T04:44:21;25.38;;;9.32;;
28343;SDS011;15597;50.914;6.638;2023-03-04T04:46:46;23.20;;;7.05;;
28343;SDS011;15597;50.914;6.638;2023-03-04T04:49:12;28.98;;;10.63;;
28343;SDS011;15597;50.914;6.638;2023-03-04T04:51:38;31.95;;;11.35;;
28343;SDS011;15597;50.914;6.638;2023-03-04T04:54:04;23.77;;;8.88;;
28343;SDS011;15597;50.914;6.638;2023-03-04T04:56:30;19.77;;;7.20;;
28343;SDS011;15597;50.914;6.638;2023-03-04T04:58:56;23.73;;;7.13;;
28343;SDS011;15597;50.914;6.638;2023-03-04T05:01:24;27.83;;;10.00;;
28343;SDS011;15597;50.914;6.638;2023-03-04T05:03:50;21.38;;;5.60;;
28343;SDS011;15597;50.914;6.638;2023-03-04T05:06:17;29.80;;;11.63;;
28343;SDS011;15597;50.914;6.638;2023-03-04T05:08:44;30.50;;;9.90;;
28343;SDS011;15597;50.914;6.638;2023-03-04T05:11:10;27.23;;;9.60;;
28343;SDS011;15597;50.914;6.638;2023-03-04T05:13:35;22.42;;;6.57;;
28343;SDS011;15597;50.914;6.638;2023-03-04T05:16:01;26.60;;;7.32;;
28343;SDS011;15597;50.914;6.638;2023-03-04T05:18:26;28.55;;;10.30;;
28343;SDS011;15597;50.914;6.638;2023-03-04T05:20:53;21.75;;;7.63;;
28343;SDS011;15597;50.914;6.638;2023-03-04T05:23:20;23.13;;;9.38;;
28343;SDS011;15597;50.914;6.638;2023-03-04T05:25:46;19.83;;;7.15;;
28343;SDS011;15597;50.914;6.638;2023-03-04T05:28:12;20.70;;;6.90;;
28343;SDS011;15597;50.914;6.638;2023-03-04T05:30:38;16.15;;;5.30;;
28343;SDS011;15597;50.914;6.638;2023-03-04T05:33:04;26.98;;;10.88;;
28343;SDS011;15597;50.914;6.638;2023-03-04T05:38:03;29.70;;;11.05;;
28343;SDS011;15597;50.914;6.638;2023-03-04T05:40:29;22.13;;;8.18;;
28343;SDS011;15597;50.914;6.638;2023-03-04T05:42:55;17.92;;;5.10;;
28343;SDS011;15597;50.914;6.638;2023-03-04T05:45:21;21.95;;;5.18;;
28343;SDS011;15597;50.914;6.638;2023-03-04T05:47:47;17.88;;;6.20;;
28343;SDS011;15597;50.914;6.638;2023-03-04T05:50:12;23.60;;;8.18;;
28343;SDS011;15597;50.914;6.638;2023-03-04T05:52:38;26.98;;;9.70;;
28343;SDS011;15597;50.914;6.638;2023-03-04T05:55:03;30.38;;;11.02;;
28343;SDS011;15597;50.914;6.638;2023-03-04T05:57:29;24.30;;;9.75;;
28343;SDS011;15597;50.914;6.638;2023-03-04T05:59:55;25.88;;;9.30;;
28343;SDS011;15597;50.914;6.638;2023-03-04T06:02:20;20.33;;;6.50;;
28343;SDS011;15597;50.914;6.638;2023-03-04T06:04:46;15.95;;;5.70;;
28343;SDS011;15597;50.914;6.638;2023-03-04T06:07:12;22.02;;;7.25;;
28343;SDS011;15597;50.914;6.638;2023-03-04T06:09:37;20.33;;;4.85;;
28343;SDS011;15597;50.914;6.638;2023-03-04T06:12:03;21.67;;;5.35;;
28343;SDS011;15597;50.914;6.638;2023-03-04T06:14:28;25.92;;;9.10;;
28343;SDS011;15597;50.914;6.638;2023-03-04T06:16:54;25.92;;;9.35;;
28343;SDS011;15597;50.914;6.638;2023-03-04T06:19:20;27.15;;;9.85;;
28343;SDS011;15597;50.914;6.638;2023-03-04T06:21:45;23.88;;;9.25;;
28343;SDS011;15597;50.914;6.638;2023-03-04T06:24:11;17.15;;;6.38;;
28343;SDS011;15597;50.914;6.638;2023-03-04T06:26:37;26.00;;;9.25;;
28343;SDS011;15597;50.914;6.638;2023-03-04T06:29:03;22.23;;;7.03;;
28343;SDS011;15597;50.914;6.638;2023-03-04T06:31:29;17.33;;;6.20;;
28343;SDS011;15597;50.914;6.638;2023-03-04T06:33:55;19.02;;;3.88;;
28343;SDS011;15597;50.914;6.638;2023-03-04T06:36:20;13.07;;;3.33;;
28343;SDS011;15597;50.914;6.638;2023-03-04T06:38:46;16.55;;;4.47;;
28343;SDS011;15597;50.914;6.638;2023-03-04T06:41:12;18.67;;;5.63;;
28343;SDS011;15597;50.914;6.638;2023-03-04T06:43:37;12.65;;;4.18;;
28343;SDS011;15597;50.914;6.638;2023-03-04T06:46:04;15.98;;;5.47;;
28343;SDS011;15597;50.914;6.638;2023-03-04T06:48:30;18.67;;;6.18;;
28343;SDS011;15597;50.914;6.638;2023-03-04T06:50:55;19.30;;;5.45;;
28343;SDS011;15597;50.914;6.638;2023-03-04T06:53:21;23.92;;;7.18;;
28343;SDS011;15597;50.914;6.638;2023-03-04T06:55:47;21.25;;;6.63;;
28343;SDS011;15597;50.914;6.638;2023-03-04T06:58:13;16.48;;;6.00;;
28343;SDS011;15597;50.914;6.638;2023-03-04T07:00:42;14.05;;;4.00;;
28343;SDS011;15597;50.914;6.638;2023-03-04T07:03:09;21.95;;;7.82;;
28343;SDS011;15597;50.914;6.638;2023-03-04T07:05:35;15.10;;;5.07;;
28343;SDS011;15597;50.914;6.638;2023-03-04T07:08:01;18.10;;;4.65;;
28343;SDS011;15597;50.914;6.638;2023-03-04T07:10:27;18.20;;;5.78;;
28343;SDS011;15597;50.914;6.638;2023-03-04T07:12:52;20.95;;;4.85;;
28343;SDS011;15597;50.914;6.638;2023-03-04T07:15:18;20.92;;;5.82;;
28343;SDS011;15597;50.914;6.638;2023-03-04T07:17:43;19.92;;;7.25;;
28343;SDS011;15597;50.914;6.638;2023-03-04T07:20:09;17.25;;;7.00;;
28343;SDS011;15597;50.914;6.638;2023-03-04T07:22:35;22.30;;;7.70;;
28343;SDS011;15597;50.914;6.638;2023-03-04T07:25:01;23.05;;;8.43;;
28343;SDS011;15597;50.914;6.638;2023-03-04T07:27:27;19.20;;;5.55;;
28343;SDS011;15597;50.914;6.638;2023-03-04T07:29:52;18.27;;;7.43;;
28343;SDS011;15597;50.914;6.638;2023-03-04T07:32:17;18.55;;;4.63;;
28343;SDS011;15597;50.914;6.638;2023-03-04T07:34:43;17.48;;;6.45;;
28343;SDS011;15597;50.914;6.638;2023-03-04T07:37:09;14.93;;;5.13;;
28343;SDS011;15597;50.914;6.638;2023-03-04T07:39:34;18.48;;;4.97;;
28343;SDS011;15597;50.914;6.638;2023-03-04T07:42:00;13.70;;;4.68;;
28343;SDS011;15597;50.914;6.638;2023-03-04T07:44:26;12.93;;;3.83;;
28343;SDS011;15597;50.914;6.638;2023-03-04T07:46:51;15.10;;;5.18;;
28343;SDS011;15597;50.914;6.638;2023-03-04T07:49:17;19.58;;;6.90;;
28343;SDS011;15597;50.914;6.638;2023-03-04T07:51:42;16.25;;;6.13;;
28343;SDS011;15597;50.914;6.638;2023-03-04T07:54:08;13.57;;;4.38;;
28343;SDS011;15597;50.914;6.638;2023-03-04T07:56:35;12.82;;;3.22;;
28343;SDS011;15597;50.914;6.638;2023-03-04T07:59:00;13.20;;;2.60;;
28343;SDS011;15597;50.914;6.638;2023-03-04T08:01:27;17.67;;;5.95;;
28343;SDS011;15597;50.914;6.638;2023-03-04T08:06:21;12.63;;;3.00;;
28343;SDS011;15597;50.914;6.638;2023-03-04T08:08:47;14.77;;;4.05;;
28343;SDS011;15597;50.914;6.638;2023-03-04T08:11:14;13.45;;;2.78;;
28343;SDS011;15597;50.914;6.638;2023-03-04T08:13:42;12.13;;;2.63;;
28343;SDS011;15597;50.914;6.638;2023-03-04T08:16:10;14.55;;;3.92;;
28343;SDS011;15597;50.914;6.638;2023-03-04T08:18:40;14.60;;;5.15;;
28343;SDS011;15597;50.914;6.638;2023-03-04T08:21:07;13.40;;;3.88;;
28343;SDS011;15597;50.914;6.638;2023-03-04T08:23:34;10.88;;;3.33;;
28343;SDS011;15597;50.914;6.638;2023-03-04T08:26:04;13.68;;;3.65;;
28343;SDS011;15597;50.914;6.638;2023-03-04T08:28:31;16.67;;;3.70;;
28343;SDS011;15597;50.914;6.638;2023-03-04T08:30:56;14.75;;;4.93;;
28343;SDS011;15597;50.914;6.638;2023-03-04T08:33:22;11.73;;;3.15;;
28343;SDS011;15597;50.914;6.638;2023-03-04T08:35:47;11.35;;;3.15;;
28343;SDS011;15597;50.914;6.638;2023-03-04T08:38:13;14.70;;;5.10;;
28343;SDS011;15597;50.914;6.638;2023-03-04T08:40:39;10.90;;;2.50;;
28343;SDS011;15597;50.914;6.638;2023-03-04T08:43:04;6.78;;;1.83;;
28343;SDS011;15597;50.914;6.638;2023-03-04T08:45:30;13.73;;;4.25;;
28343;SDS011;15597;50.914;6.638;2023-03-04T08:47:55;11.50;;;2.53;;
28343;SDS011;15597;50.914;6.638;2023-03-04T08:50:21;9.27;;;2.88;;
28343;SDS011;15597;50.914;6.638;2023-03-04T08:52:47;15.68;;;5.30;;
28343;SDS011;15597;50.914;6.638;2023-03-04T08:55:13;7.85;;;2.33;;
28343;SDS011;15597;50.914;6.638;2023-03-04T08:57:38;12.70;;;3.75;;
28343;SDS011;15597;50.914;6.638;2023-03-04T09:00:04;8.43;;;2.53;;
28343;SDS011;15597;50.914;6.638;2023-03-04T09:02:30;9.63;;;3.25;;
28343;SDS011;15597;50.914;6.638;2023-03-04T09:04:56;12.25;;;3.20;;
28343;SDS011;15597;50.914;6.638;2023-03-04T09:07:22;10.70;;;2.75;;
28343;SDS011;15597;50.914;6.638;2023-03-04T09:09:48;13.25;;;3.13;;
28343;SDS011;15597;50.914;6.638;2023-03-04T09:12:13;6.68;;;2.42;;
28343;SDS011;15597;50.914;6.638;2023-03-04T09:14:39;12.93;;;3.53;;
28343;SDS011;15597;50.914;6.638;2023-03-04T09:17:08;15.55;;;5.13;;
28343;SDS011;15597;50.914;6.638;2023-03-04T09:19:34;11.90;;;4.13;;
28343;SDS011;15597;50.914;6.638;2023-03-04T09:21:59;14.02;;;4.07;;
28343;SDS011;15597;50.914;6.638;2023-03-04T09:24:26;13.07;;;4.07;;
28343;SDS011;15597;50.914;6.638;2023-03-04T09:26:52;8.48;;;2.83;;
28343;SDS011;15597;50.914;6.638;2023-03-04T09:29:19;9.30;;;2.58;;
28343;SDS011;15597;50.914;6.638;2023-03-04T09:31:45;11.85;;;2.67;;
28343;SDS011;15597;50.914;6.638;2023-03-04T09:34:11;11.68;;;3.80;;
28343;SDS011;15597;50.914;6.638;2023-03-04T09:36:37;12.13;;;4.05;;
28343;SDS011;15597;50.914;6.638;2023-03-04T09:39:03;6.78;;;2.75;;
28343;SDS011;15597;50.914;6.638;2023-03-04T09:41:33;12.15;;;2.80;;
28343;SDS011;15597;50.914;6.638;2023-03-04T09:46:50;14.32;;;3.95;;
28343;SDS011;15597;50.914;6.638;2023-03-04T09:49:20;10.45;;;3.67;;
28343;SDS011;15597;50.914;6.638;2023-03-04T09:51:50;10.02;;;3.45;;
28343;SDS011;15597;50.914;6.638;2023-03-04T09:54:49;9.98;;;2.78;;
28343;SDS011;15597;50.914;6.638;2023-03-04T10:02:42;10.48;;;3.60;;
28343;SDS011;15597;50.914;6.638;2023-03-04T10:05:27;9.30;;;3.22;;
28343;SDS011;15597;50.914;6.638;2023-03-04T10:12:52;6.78;;;2.50;;
28343;SDS011;15597;50.914;6.638;2023-03-04T10:15:31;10.65;;;3.85;;
28343;SDS011;15597;50.914;6.638;2023-03-04T10:21:05;7.38;;;2.83;;
28343;SDS011;15597;50.914;6.638;2023-03-04T10:23:39;10.32;;;3.63;;
28343;SDS011;15597;50.914;6.638;2023-03-04T10:26:11;10.73;;;4.13;;
28343;SDS011;15597;50.914;6.638;2023-03-04T10:28:39;10.23;;;2.83;;
28343;SDS011;15597;50.914;6.638;2023-03-04T10:38:56;8.77;;;2.85;;
28343;SDS011;15597;50.914;6.638;2023-03-04T10:41:23;8.30;;;2.42;;
28343;SDS011;15597;50.914;6.638;2023-03-04T10:46:36;9.88;;;2.65;;
28343;SDS011;15597;50.914;6.638;2023-03-04T10:49:03;9.32;;;2.72;;
28343;SDS011;15597;50.914;6.638;2023-03-04T10:51:29;11.05;;;3.47;;
28343;SDS011;15597;50.914;6.638;2023-03-04T10:54:40;5.68;;;2.42;;
28343;SDS011;15597;50.914;6.638;2023-03-04T10:57:17;5.95;;;2.38;;
28343;SDS011;15597;50.914;6.638;2023-03-04T10:59:46;9.32;;;3.03;;
28343;SDS011;15597;50.914;6.638;2023-03-04T11:02:25;8.93;;;1.90;;
28343;SDS011;15597;50.914;6.638;2023-03-04T11:07:25;9.13;;;2.83;;
28343;SDS011;15597;50.914;6.638;2023-03-04T11:09:51;8.60;;;2.88;;
28343;SDS011;15597;50.914;6.638;2023-03-04T11:12:19;5.68;;;1.70;;
28343;SDS011;15597;50.914;6.638;2023-03-04T11:14:49;5.72;;;1.45;;
28343;SDS011;15597;50.914;6.638;2023-03-04T11:17:38;6.13;;;2.30;;
28343;SDS011;15597;50.914;6.638;2023-03-04T11:20:16;9.70;;;2.88;;
28343;SDS011;15597;50.914;6.638;2023-03-04T11:22:52;7.95;;;2.45;;
28343;SDS011;15597;50.914;6.638;2023-03-04T11:27:52;7.70;;;2.50;;
28343;SDS011;15597;50.914;6.638;2023-03-04T11:32:49;9.27;;;3.08;;
28343;SDS011;15597;50.914;6.638;2023-03-04T11:35:20;6.90;;;2.08;;
28343;SDS011;15597;50.914;6.638;2023-03-04T11:40:35;10.70;;;3.40;;
28343;SDS011;15597;50.914;6.638;2023-03-04T11:43:06;10.63;;;3.30;;
28343;SDS011;15597;50.914;6.638;2023-03-04T11:57:21;4.88;;;1.70;;
28343;SDS011;15597;50.914;6.638;2023-03-04T12:00:15;7.43;;;2.45;;
28343;SDS011;15597;50.914;6.638;2023-03-04T12:05:51;7.22;;;2.42;;
28343;SDS011;15597;50.914;6.638;2023-03-04T12:19:55;5.20;;;1.92;;
28343;SDS011;15597;50.914;6.638;2023-03-04T12:22:44;4.38;;;1.27;;
28343;SDS011;15597;50.914;6.638;2023-03-04T12:25:40;3.78;;;1.25;;
28343;SDS011;15597;50.914;6.638;2023-03-04T12:34:02;5.30;;;1.25;;
28343;SDS011;15597;50.914;6.638;2023-03-04T12:39:31;5.18;;;1.63;;
28343;SDS011;15597;50.914;6.638;2023-03-04T12:42:11;5.28;;;1.67;;
28343;SDS011;15597;50.914;6.638;2023-03-04T12:50:53;5.55;;;1.80;;
28343;SDS011;15597;50.914;6.638;2023-03-04T12:53:58;6.22;;;2.03;;
28343;SDS011;15597;50.914;6.638;2023-03-04T12:56:26;5.47;;;2.00;;
28343;SDS011;15597;50.914;6.638;2023-03-04T12:59:33;5.63;;;1.70;;
28343;SDS011;15597;50.914;6.638;2023-03-04T13:10:49;6.75;;;1.90;;
28343;SDS011;15597;50.914;6.638;2023-03-04T13:18:43;6.05;;;1.60;;
28343;SDS011;15597;50.914;6.638;2023-03-04T13:21:22;3.80;;;1.25;;
28343;SDS011;15597;50.914;6.638;2023-03-04T13:23:52;9.25;;;1.92;;
28343;SDS011;15597;50.914;6.638;2023-03-04T13:28:45;6.38;;;1.67;;
28343;SDS011;15597;50.914;6.638;2023-03-04T13:31:17;3.75;;;1.55;;
28343;SDS011;15597;50.914;6.638;2023-03-04T13:33:47;5.78;;;1.83;;
28343;SDS011;15597;50.914;6.638;2023-03-04T13:39:34;4.50;;;1.60;;
28343;SDS011;15597;50.914;6.638;2023-03-04T13:41:48;5.82;;;1.63;;
28343;SDS011;15597;50.914;6.638;2023-03-04T13:47:08;6.13;;;1.70;;
28343;SDS011;15597;50.914;6.638;2023-03-04T13:57:57;7.85;;;1.80;;
28343;SDS011;15597;50.914;6.638;2023-03-04T14:00:23;5.80;;;1.80;;
28343;SDS011;15597;50.914;6.638;2023-03-04T14:02:52;5.72;;;1.75;;
28343;SDS011;15597;50.914;6.638;2023-03-04T14:05:17;8.65;;;1.75;;
28343;SDS011;15597;50.914;6.638;2023-03-04T14:07:47;5.95;;;1.83;;
28343;SDS011;15597;50.914;6.638;2023-03-04T14:12:40;7.28;;;1.85;;
28343;SDS011;15597;50.914;6.638;2023-03-04T14:17:37;7.22;;;2.10;;
28343;SDS011;15597;50.914;6.638;2023-03-04T14:20:06;4.72;;;1.65;;
28343;SDS011;15597;50.914;6.638;2023-03-04T14:22:50;5.15;;;2.00;;
28343;SDS011;15597;50.914;6.638;2023-03-04T14:27:47;7.40;;;1.70;;
28343;SDS011;15597;50.914;6.638;2023-03-04T14:30:34;5.10;;;1.77;;
28343;SDS011;15597;50.914;6.638;2023-03-04T14:33:00;4.38;;;1.58;;
28343;SDS011;15597;50.914;6.638;2023-03-04T14:35:29;5.82;;;1.60;;
28343;SDS011;15597;50.914;6.638;2023-03-04T14:40:58;6.13;;;1.90;;
28343;SDS011;15597;50.914;6.638;2023-03-04T14:43:28;7.82;;;2.17;;
28343;SDS011;15597;50.914;6.638;2023-03-04T14:45:58;7.70;;;1.95;;
28343;SDS011;15597;50.914;6.638;2023-03-04T14:48:30;4.80;;;1.80;;
28343;SDS011;15597;50.914;6.638;2023-03-04T14:51:03;6.00;;;1.90;;
28343;SDS011;15597;50.914;6.638;2023-03-04T14:53:29;5.40;;;1.80;;
28343;SDS011;15597;50.914;6.638;2023-03-04T14:56:01;5.63;;;1.90;;
28343;SDS011;15597;50.914;6.638;2023-03-04T15:01:40;5.85;;;1.80;;
28343;SDS011;15597;50.914;6.638;2023-03-04T15:04:13;6.35;;;1.73;;
28343;SDS011;15597;50.914;6.638;2023-03-04T15:06:48;5.65;;;1.48;;
28343;SDS011;15597;50.914;6.638;2023-03-04T15:09:17;6.80;;;1.65;;
28343;SDS011;15597;50.914;6.638;2023-03-04T15:17:05;7.32;;;1.95;;
28343;SDS011;15597;50.914;6.638;2023-03-04T15:19:45;9.38;;;2.97;;
28343;SDS011;15597;50.914;6.638;2023-03-04T15:22:22;7.47;;;2.47;;
28343;SDS011;15597;50.914;6.638;2023-03-04T15:24:48;8.05;;;3.08;;
28343;SDS011;15597;50.914;6.638;2023-03-04T15:27:13;5.10;;;2.05;;
28343;SDS011;15597;50.914;6.638;2023-03-04T15:29:44;7.20;;;2.22;;
28343;SDS011;15597;50.914;6.638;2023-03-04T15:32:09;5.18;;;1.60;;
28343;SDS011;15597;50.914;6.638;2023-03-04T15:34:35;4.03;;;1.70;;
28343;SDS011;15597;50.914;6.638;2023-03-04T15:37:01;5.75;;;1.60;;
28343;SDS011;15597;50.914;6.638;2023-03-04T15:39:27;6.65;;;1.52;;
28343;SDS011;15597;50.914;6.638;2023-03-04T15:41:52;5.43;;;2.00;;
28343;SDS011;15597;50.914;6.638;2023-03-04T15:44:19;6.80;;;2.45;;
28343;SDS011;15597;50.914;6.638;2023-03-04T15:46:45;6.38;;;1.90;;
28343;SDS011;15597;50.914;6.638;2023-03-04T15:49:11;5.55;;;1.80;;
28343;SDS011;15597;50.914;6.638;2023-03-04T15:51:36;5.55;;;1.90;;
28343;SDS011;15597;50.914;6.638;2023-03-04T15:54:02;5.88;;;1.95;;
28343;SDS011;15597;50.914;6.638;2023-03-04T15:56:29;4.97;;;1.60;;
28343;SDS011;15597;50.914;6.638;2023-03-04T15:58:58;5.90;;;1.98;;
28343;SDS011;15597;50.914;6.638;2023-03-04T16:01:29;5.63;;;1.80;;
28343;SDS011;15597;50.914;6.638;2023-03-04T16:03:55;6.50;;;1.80;;
28343;SDS011;15597;50.914;6.638;2023-03-04T16:06:27;5.07;;;1.60;;
28343;SDS011;15597;50.914;6.638;2023-03-04T16:08:55;7.25;;;1.83;;
28343;SDS011;15597;50.914;6.638;2023-03-04T16:11:22;6.30;;;2.10;;
28343;SDS011;15597;50.914;6.638;2023-03-04T16:13:53;5.28;;;2.10;;
28343;SDS011;15597;50.914;6.638;2023-03-04T16:16:19;12.10;;;2.13;;
28343;SDS011;15597;50.914;6.638;2023-03-04T16:18:45;7.45;;;1.83;;
28343;SDS011;15597;50.914;6.638;2023-03-04T16:21:12;4.25;;;1.80;;
28343;SDS011;15597;50.914;6.638;2023-03-04T16:26:27;6.90;;;2.65;;
28343;SDS011;15597;50.914;6.638;2023-03-04T16:28:52;7.40;;;2.10;;
28343;SDS011;15597;50.914;6.638;2023-03-04T16:31:19;7.03;;;2.55;;
28343;SDS011;15597;50.914;6.638;2023-03-04T16:33:45;7.18;;;2.83;;
28343;SDS011;15597;50.914;6.638;2023-03-04T16:36:29;4.88;;;2.10;;
28343;SDS011;15597;50.914;6.638;2023-03-04T16:38:55;6.10;;;1.92;;
28343;SDS011;15597;50.914;6.638;2023-03-04T16:41:26;6.80;;;2.35;;
28343;SDS011;15597;50.914;6.638;2023-03-04T16:43:57;6.30;;;2.35;;
28343;SDS011;15597;50.914;6.638;2023-03-04T16:46:23;9.90;;;3.17;;
28343;SDS011;15597;50.914;6.638;2023-03-04T16:48:48;7.18;;;2.83;;
28343;SDS011;15597;50.914;6.638;2023-03-04T16:51:16;10.43;;;3.63;;
28343;SDS011;15597;50.914;6.638;2023-03-04T16:53:46;6.68;;;2.10;;
28343;SDS011;15597;50.914;6.638;2023-03-04T16:56:15;5.40;;;2.28;;